METAR AND TAF INFORMATION
METAR FOR LEMH
ADDS - METARS form results

(0940 UTC 22 May 2018)
Data provider http://aviationweather.gov/adds/metars/
 
METAR text: LEMH 220930Z 28008KT 230V310 9999 FEW012 SCT020 19/17 Q1014
Conditions at: LEMH (MAHON/MENORCA IS, ES) observed 0930 UTC 22 May 2018
Temperature: 19.0°C (66°F)
Dewpoint: 17.0°C (63°F) [RH = 88%]
Pressure (altimeter): 29.94 inches Hg (1014.0 mb)
Winds: from the W (280 degrees) at 9 MPH (8 knots; 4.2 m/s)
Visibility: 6 or more miles (10+ km)
Ceiling: at least 12,000 feet AGL
Clouds: few clouds at 1200 feet AGL
scattered clouds at 2000 feet AGL
Weather: no significant weather observed at this time

METAR text: LEMH 220900Z 27008KT 240V300 9999 FEW012 SCT020 18/15 Q1014
Conditions at: LEMH (MAHON/MENORCA IS, ES) observed 0900 UTC 22 May 2018
Temperature: 18.0°C (64°F)
Dewpoint: 15.0°C (59°F) [RH = 83%]
Pressure (altimeter): 29.94 inches Hg (1014.0 mb)
Winds: from the W (270 degrees) at 9 MPH (8 knots; 4.2 m/s)
Visibility: 6 or more miles (10+ km)
Ceiling: at least 12,000 feet AGL
Clouds: few clouds at 1200 feet AGL
scattered clouds at 2000 feet AGL
Weather: no significant weather observed at this time

Forecast for: LEMH (MAHON/MENORCA IS, ES)
Text: TAF LEMH 220800Z 2209/2309 22006KT 9999 FEW020 TX24/2212Z TN14/2306Z
Forecast period: 0900 UTC 22 May 2018 to 0900 UTC 23 May 2018
Forecast type: FROM: standard forecast or significant change
Winds: from the SW (220 degrees) at 7 MPH (6 knots; 3.1 m/s)
Visibility: 6 or more miles (10+ km)
Clouds: few clouds at 2000 feet AGL
Weather: no significant weather forecast for this period
Forecast for: LEMH (MAHON/MENORCA IS, ES)
Text: TAF LEMH 220800Z 2209/2309 22006KT 9999 FEW020 TX24/2212Z TN14/2306Z
Forecast period: 0900 UTC 22 May 2018 to 0900 UTC 23 May 2018
Forecast type: FROM: standard forecast or significant change
Winds: from the SW (220 degrees) at 7 MPH (6 knots; 3.1 m/s)
Visibility: 6 or more miles (10+ km)
Clouds: few clouds at 2000 feet AGL
Weather: no significant weather forecast for this period
Forecast for: LEMH (MAHON/MENORCA IS, ES)
Text: TAF LEMH 220800Z 2209/2309 22006KT 9999 FEW020 TX24/2212Z TN14/2306Z
Forecast period: 0900 to 1500 UTC 22 May 2018
Forecast type: TEMPORARY: The following changes expected for less than half the time period
Winds: from the WSW (250 degrees) at 12 MPH (10 knots; 5.2 m/s)
Weather: no significant weather forecast for this period
Forecast for: LEMH (MAHON/MENORCA IS, ES)
Text: TAF LEMH 220800Z 2209/2309 22006KT 9999 FEW020 TX24/2212Z TN14/2306Z
Forecast period: 0900 to 1500 UTC 22 May 2018
Forecast type: TEMPORARY: The following changes expected for less than half the time period
Winds: from the WSW (250 degrees) at 12 MPH (10 knots; 5.2 m/s)
Weather: no significant weather forecast for this period
Forecast for: LEMH (MAHON/MENORCA IS, ES)
Text: TAF LEMH 220800Z 2209/2309 22006KT 9999 FEW020 TX24/2212Z TN14/2306Z
Forecast period: 1300 to 1900 UTC 22 May 2018
Forecast type: TEMPORARY: The following changes expected for less than half the time period
Clouds: few clouds at 2500 feet AGL
Weather: no significant weather forecast for this period
Forecast for: LEMH (MAHON/MENORCA IS, ES)
Text: TAF LEMH 220800Z 2209/2309 22006KT 9999 FEW020 TX24/2212Z TN14/2306Z
Forecast period: 1300 to 1900 UTC 22 May 2018
Forecast type: TEMPORARY: The following changes expected for less than half the time period
Clouds: few clouds at 2500 feet AGL
Weather: no significant weather forecast for this period
Forecast for: LEMH (MAHON/MENORCA IS, ES)
Text: TAF LEMH 220800Z 2209/2309 22006KT 9999 FEW020 TX24/2212Z TN14/2306Z
Forecast period: 0000 to 0700 UTC 23 May 2018
Forecast type: TEMPORARY: The following changes expected for less than half the time period
Visibility: 1.86 miles (2.99 km)
Clouds: scattered clouds at 800 feet AGL
Weather: BR  (mist)
Forecast for: LEMH (MAHON/MENORCA IS, ES)
Text: TAF LEMH 220800Z 2209/2309 22006KT 9999 FEW020 TX24/2212Z TN14/2306Z
Forecast period: 0000 to 0700 UTC 23 May 2018
Forecast type: TEMPORARY: The following changes expected for less than half the time period
Visibility: 1.86 miles (2.99 km)
Clouds: scattered clouds at 800 feet AGL
Weather: BR  (mist)

 AIRPORT MAP

 RUNWAY INFORMATION
Runway 01L Runway length 7710 ft Runway width 148 ft
Runway elevation 277 ft Runway displaced threshold 0 ft Runway heading 9
Runway 19R Runway length 7710 ft Runway width 148 ft
Runway elevation 298 ft Runway displaced threshold 0 ft Runway heading 189
Runway 01R Runway length 6890 ft Runway width 148 ft
Runway elevation 272 ft Runway displaced threshold 0 ft Runway heading 9
Runway 19L Runway length 6890 ft Runway width 148 ft
Runway elevation 298 ft Runway displaced threshold 0 ft Runway heading 189

 AIRPORT FREQUENCIES
Type APP Name APP Frequency 119.65 MHZ
Type ATIS Name ATIS Frequency 112.6 MHZ
Type GND Name GND Frequency 121.75 MHZ
Type TWR Name TWR Frequency 118.2 MHZ

 AIRPORT NEAR NAVIGATION AIDS
Type VOR-DME Name Menorca Frequency 112600 KHZ
Type NDB Name Menorca Frequency 344 KHZ



Powered by Virtual Airlines Manager [v2.6.2]